Time;durP1;ratioP1;P1;durP2;ratioP2;P2;SDS_P1;SDS_P2;PMS_P1;PMS_P2;Temp;Humidity;BMP_temperature;BMP_pressure;BME280_temperature;BME280_humidity;BME280_pressure;Samples;Min_cycle;Max_cycle;Signal;HPM_P1;HPM_P2
2021/10/17 00:00:15;;;;;;;40.70;26.20;;;8.40;99.90;;;;;;5056236;28;20211;-78
2021/10/17 00:02:42;;;;;;;41.60;26.52;;;8.50;99.90;;;;;;5056464;28;20207;-78
2021/10/17 00:05:10;;;;;;;41.63;26.40;;;8.60;99.90;;;;;;5059130;28;20289;-78
2021/10/17 00:07:38;;;;;;;36.78;23.85;;;8.60;99.90;;;;;;5060818;28;20345;-77
2021/10/17 00:10:08;;;;;;;40.97;24.67;;;8.70;99.90;;;;;;5059217;28;20206;-77
2021/10/17 00:12:35;;;;;;;52.55;27.30;;;8.80;99.90;;;;;;5064604;28;20623;-78
2021/10/17 00:15:05;;;;;;;55.42;27.42;;;8.80;99.90;;;;;;5072061;28;20586;-78
2021/10/17 00:17:32;;;;;;;40.60;24.88;;;8.90;99.90;;;;;;5058156;28;20202;-78
2021/10/17 00:19:59;;;;;;;47.67;25.10;;;8.90;99.90;;;;;;5057499;28;20298;-78
2021/10/17 00:22:26;;;;;;;45.45;25.05;;;9.00;99.90;;;;;;5057264;28;20210;-77
2021/10/17 00:24:54;;;;;;;44.40;26.50;;;8.90;99.90;;;;;;5056544;28;20288;-78
2021/10/17 00:27:20;;;;;;;43.33;24.98;;;9.00;99.90;;;;;;5055730;28;20231;-77
2021/10/17 00:29:47;;;;;;;50.67;25.98;;;9.00;99.90;;;;;;5057527;28;20203;-77
2021/10/17 00:32:16;;;;;;;47.67;26.02;;;9.00;99.90;;;;;;5055481;28;20670;-77
2021/10/17 00:34:43;;;;;;;41.00;24.02;;;9.10;99.90;;;;;;5054823;28;20230;-79
2021/10/17 00:37:10;;;;;;;45.67;25.05;;;9.10;99.90;;;;;;5054857;28;20233;-77
2021/10/17 00:39:37;;;;;;;54.17;28.10;;;9.10;99.90;;;;;;5056003;28;20198;-78
2021/10/17 00:42:05;;;;;;;51.90;25.65;;;9.20;99.90;;;;;;5055938;28;20294;-78
2021/10/17 00:44:33;;;;;;;47.35;26.08;;;9.20;99.90;;;;;;5056084;28;20325;-78
2021/10/17 00:47:00;;;;;;;44.20;24.77;;;9.20;99.90;;;;;;5055076;28;20586;-77
2021/10/17 00:49:28;;;;;;;51.78;28.08;;;9.30;99.90;;;;;;5054724;28;20635;-78
2021/10/17 00:51:55;;;;;;;39.13;24.17;;;9.20;99.90;;;;;;5055183;28;20238;-78
2021/10/17 00:54:22;;;;;;;42.30;24.35;;;9.20;99.90;;;;;;5057544;28;20206;-78
2021/10/17 00:56:49;;;;;;;40.42;24.73;;;9.30;99.90;;;;;;5058512;28;20264;-77
2021/10/17 00:59:16;;;;;;;38.55;23.75;;;9.30;99.90;;;;;;5059432;28;20207;-77
2021/10/17 01:01:43;;;;;;;39.78;24.17;;;9.30;99.90;;;;;;5058301;28;20274;-78
2021/10/17 01:04:10;;;;;;;39.72;24.15;;;9.40;99.90;;;;;;5059411;28;20213;-77
2021/10/17 01:06:39;;;;;;;39.70;23.63;;;9.40;99.90;;;;;;5057863;28;20234;-78
2021/10/17 01:09:06;;;;;;;45.35;25.58;;;9.40;99.90;;;;;;5063814;28;20299;-77
2021/10/17 01:11:41;;;;;;;42.10;23.85;;;9.50;99.90;;;;;;5063564;28;20290;-77
2021/10/17 01:14:09;;;;;;;45.08;25.17;;;9.60;99.90;;;;;;5061405;28;20296;-78
2021/10/17 01:16:38;;;;;;;45.58;25.98;;;9.50;99.90;;;;;;5061517;28;20215;-78
2021/10/17 01:19:05;;;;;;;47.95;24.30;;;9.40;99.90;;;;;;5061341;28;20576;-78
2021/10/17 01:21:33;;;;;;;43.80;25.67;;;9.50;99.90;;;;;;5059216;28;20210;-78
2021/10/17 01:24:00;;;;;;;49.20;27.08;;;9.30;99.90;;;;;;5060525;28;20571;-78
2021/10/17 01:26:28;;;;;;;49.22;27.13;;;9.10;99.90;;;;;;5062903;28;20250;-78
2021/10/17 01:28:55;;;;;;;49.72;27.85;;;9.00;99.90;;;;;;5070833;28;20233;-76
2021/10/17 01:31:32;;;;;;;59.13;29.52;;;9.00;99.90;;;;;;5073053;28;20217;-76
2021/10/17 01:33:59;;;;;;;55.28;30.27;;;9.00;99.90;;;;;;5070196;28;20280;-76
2021/10/17 01:36:34;;;;;;;51.08;27.95;;;9.00;99.90;;;;;;5070885;28;20236;-78
2021/10/17 01:39:01;;;;;;;50.83;28.20;;;9.00;99.90;;;;;;5058208;28;20202;-76
2021/10/17 01:41:28;;;;;;;47.17;26.77;;;9.10;99.90;;;;;;5070411;28;20237;-77
2021/10/17 01:44:00;;;;;;;46.17;27.05;;;9.20;99.90;;;;;;5062014;28;20238;-76
2021/10/17 01:46:27;;;;;;;50.90;29.45;;;9.30;99.90;;;;;;5069470;28;20585;-77
2021/10/17 01:48:54;;;;;;;43.45;26.42;;;9.40;99.90;;;;;;5063258;28;20621;-76
2021/10/17 01:51:20;;;;;;;51.10;28.52;;;9.40;99.90;;;;;;5054383;28;20207;-76
2021/10/17 01:53:49;;;;;;;45.40;25.92;;;9.50;99.90;;;;;;5054844;28;20312;-76
2021/10/17 01:56:15;;;;;;;40.55;25.20;;;9.50;99.90;;;;;;5053973;28;20616;-76
2021/10/17 01:58:42;;;;;;;45.00;26.58;;;9.60;99.90;;;;;;5054518;28;20297;-81
2021/10/17 02:01:09;;;;;;;42.40;25.20;;;9.60;99.90;;;;;;5064517;28;20281;-80
2021/10/17 02:03:36;;;;;;;38.35;24.50;;;9.70;99.90;;;;;;5080767;28;20214;-76
2021/10/17 02:06:03;;;;;;;42.58;24.13;;;9.70;99.90;;;;;;5073536;28;20218;-79
2021/10/17 02:08:31;;;;;;;37.58;25.05;;;9.70;99.90;;;;;;5062449;28;20226;-76
2021/10/17 02:10:59;;;;;;;42.50;25.73;;;9.80;99.90;;;;;;5060415;28;20210;-78
2021/10/17 02:13:26;;;;;;;50.70;26.58;;;9.80;99.90;;;;;;5063443;28;20210;-76
2021/10/17 02:15:53;;;;;;;39.10;24.13;;;9.90;99.90;;;;;;5063686;28;20317;-77
2021/10/17 02:18:20;;;;;;;47.08;26.08;;;9.80;99.90;;;;;;5063282;28;20263;-78
2021/10/17 02:20:47;;;;;;;42.92;25.10;;;9.90;99.90;;;;;;5062632;28;20293;-78
2021/10/17 02:23:13;;;;;;;47.47;26.88;;;9.90;99.90;;;;;;5062307;28;20212;-79
2021/10/17 02:25:40;;;;;;;43.17;25.48;;;9.90;99.90;;;;;;5061336;28;20317;-79
2021/10/17 02:28:08;;;;;;;43.00;27.05;;;9.90;99.90;;;;;;5066332;28;20226;-77
2021/10/17 02:30:35;;;;;;;48.08;25.35;;;9.90;99.90;;;;;;5077475;28;20200;-77
2021/10/17 02:33:02;;;;;;;48.17;26.45;;;9.90;99.90;;;;;;5071160;28;20553;-79
2021/10/17 02:35:29;;;;;;;45.13;26.80;;;10.00;99.90;;;;;;5060863;28;20231;-78
2021/10/17 02:37:56;;;;;;;41.33;23.75;;;10.00;99.90;;;;;;5059687;28;20217;-78
2021/10/17 02:40:23;;;;;;;41.33;23.63;;;10.00;99.90;;;;;;5061037;28;20211;-78
2021/10/17 02:42:49;;;;;;;40.95;23.60;;;10.00;99.90;;;;;;5067950;28;20277;-77
2021/10/17 02:45:18;;;;;;;45.17;24.60;;;10.00;99.90;;;;;;5078674;28;20222;-77
2021/10/17 02:47:44;;;;;;;43.88;25.40;;;10.00;99.90;;;;;;5061566;28;20219;-76
2021/10/17 02:50:12;;;;;;;41.20;25.33;;;10.00;99.90;;;;;;5059923;28;20274;-76
2021/10/17 02:52:39;;;;;;;40.95;25.42;;;10.00;99.90;;;;;;5061846;28;20219;-78
2021/10/17 02:55:06;;;;;;;49.50;28.67;;;10.00;99.90;;;;;;5059229;28;20246;-78
2021/10/17 02:57:33;;;;;;;51.13;27.88;;;10.00;99.90;;;;;;5060314;28;20573;-76
2021/10/17 03:00:00;;;;;;;42.42;25.02;;;10.00;99.90;;;;;;5057016;28;20218;-75
2021/10/17 03:02:28;;;;;;;50.80;27.80;;;10.10;99.90;;;;;;5055595;28;20212;-76
2021/10/17 03:04:55;;;;;;;43.55;26.50;;;10.00;99.90;;;;;;5055424;28;20226;-76
2021/10/17 03:07:22;;;;;;;44.20;25.58;;;10.00;99.90;;;;;;5055518;28;20224;-77
2021/10/17 03:09:48;;;;;;;45.40;26.88;;;10.00;99.90;;;;;;5055518;28;20214;-75
2021/10/17 03:12:15;;;;;;;41.80;24.67;;;10.00;99.90;;;;;;5054703;28;20213;-76
2021/10/17 03:14:42;;;;;;;41.83;24.23;;;10.00;99.90;;;;;;5055079;28;20233;-75
2021/10/17 03:17:09;;;;;;;46.17;25.05;;;9.90;99.90;;;;;;5055774;28;20696;-76
2021/10/17 03:19:37;;;;;;;48.33;26.83;;;10.00;99.90;;;;;;5055072;28;20238;-76
2021/10/17 03:22:04;;;;;;;42.53;25.25;;;10.10;99.90;;;;;;5055098;28;20211;-76
2021/10/17 03:24:31;;;;;;;46.15;26.45;;;10.10;99.90;;;;;;5055443;28;20230;-76
2021/10/17 03:26:58;;;;;;;44.85;25.48;;;10.00;99.90;;;;;;5055091;28;20609;-76
2021/10/17 03:29:25;;;;;;;44.15;25.77;;;10.00;99.90;;;;;;5055125;28;20223;-77
2021/10/17 03:31:51;;;;;;;43.20;25.20;;;10.00;99.90;;;;;;5055238;28;20295;-77
2021/10/17 03:34:18;;;;;;;52.28;26.30;;;10.00;99.90;;;;;;5055082;28;20642;-77
2021/10/17 03:36:46;;;;;;;46.67;26.38;;;10.00;99.90;;;;;;5056105;28;20207;-77
2021/10/17 03:39:13;;;;;;;44.08;26.13;;;9.90;99.90;;;;;;5054981;28;20203;-77
2021/10/17 03:41:40;;;;;;;46.05;24.17;;;9.90;99.90;;;;;;5055585;28;20211;-77
2021/10/17 03:44:07;;;;;;;47.50;27.50;;;9.90;99.90;;;;;;5054778;28;20541;-76
2021/10/17 03:46:34;;;;;;;43.67;25.10;;;10.00;99.90;;;;;;5079484;22;20304;-77
2021/10/17 03:49:00;;;;;;;44.00;26.25;;;9.90;99.90;;;;;;5058923;28;20694;-78
2021/10/17 03:51:27;;;;;;;42.03;25.15;;;10.00;99.90;;;;;;5059607;28;20225;-78
2021/10/17 03:53:55;;;;;;;42.50;23.35;;;10.00;99.90;;;;;;5059550;28;20199;-77
2021/10/17 03:56:22;;;;;;;40.55;23.90;;;9.90;99.90;;;;;;5047095;28;20256;-77
2021/10/17 03:58:49;;;;;;;49.97;26.30;;;9.90;99.90;;;;;;5037701;28;20221;-77
2021/10/17 04:01:16;;;;;;;47.03;25.60;;;9.80;99.90;;;;;;5037904;28;20279;-77
2021/10/17 04:03:43;;;;;;;52.17;30.08;;;9.80;99.90;;;;;;5037485;28;20209;-78
2021/10/17 04:06:10;;;;;;;49.22;26.00;;;9.80;99.90;;;;;;5036761;28;20318;-78
2021/10/17 04:08:39;;;;;;;46.85;26.70;;;9.80;99.90;;;;;;5037123;28;20249;-78
2021/10/17 04:11:07;;;;;;;44.10;23.48;;;9.90;99.90;;;;;;5036096;28;20207;-77
2021/10/17 04:13:34;;;;;;;47.33;25.27;;;9.90;99.90;;;;;;5036138;28;20208;-77
2021/10/17 04:16:00;;;;;;;51.38;25.88;;;9.60;99.90;;;;;;5035268;28;20335;-76
2021/10/17 04:18:27;;;;;;;43.17;23.77;;;9.70;99.90;;;;;;5035489;28;20293;-77
2021/10/17 04:20:56;;;;;;;49.38;24.58;;;9.70;99.90;;;;;;5035591;28;20217;-77
2021/10/17 04:23:23;;;;;;;51.88;24.30;;;9.70;99.90;;;;;;5035755;28;20219;-77
2021/10/17 04:25:50;;;;;;;46.95;25.20;;;9.80;99.90;;;;;;5035767;28;20232;-77
2021/10/17 04:28:18;;;;;;;49.47;25.38;;;9.80;99.90;;;;;;5035317;28;20223;-77
2021/10/17 04:30:45;;;;;;;46.25;25.00;;;9.80;99.90;;;;;;5035205;28;20219;-77
2021/10/17 04:33:12;;;;;;;49.95;26.92;;;9.80;99.90;;;;;;5035601;28;20243;-77
2021/10/17 04:35:40;;;;;;;51.55;25.75;;;9.70;99.90;;;;;;5035698;28;20227;-78
2021/10/17 04:38:08;;;;;;;42.35;24.45;;;9.80;99.90;;;;;;5035843;28;20654;-77
2021/10/17 04:40:37;;;;;;;50.85;26.52;;;9.80;99.90;;;;;;5036155;28;20208;-78
2021/10/17 04:43:04;;;;;;;47.33;27.23;;;9.90;99.90;;;;;;5051203;28;20226;-78
2021/10/17 04:45:33;;;;;;;45.15;25.48;;;10.00;99.90;;;;;;5057674;28;20228;-77
2021/10/17 04:47:59;;;;;;;43.67;25.27;;;10.00;99.90;;;;;;5057730;28;20258;-77
2021/10/17 04:50:26;;;;;;;47.15;25.90;;;9.90;99.90;;;;;;5057357;28;20207;-77
2021/10/17 04:52:53;;;;;;;46.83;26.42;;;10.00;99.90;;;;;;5049664;28;20247;-77
2021/10/17 04:55:20;;;;;;;49.83;27.67;;;10.00;99.90;;;;;;5035278;28;20262;-77
2021/10/17 04:57:47;;;;;;;48.30;26.23;;;10.00;99.90;;;;;;5037948;28;20216;-78
2021/10/17 05:00:14;;;;;;;49.38;25.60;;;9.90;99.90;;;;;;5034603;28;20207;-77
2021/10/17 05:02:43;;;;;;;49.45;26.15;;;9.80;99.90;;;;;;5035419;28;20203;-77
2021/10/17 05:05:10;;;;;;;51.95;25.48;;;9.80;99.90;;;;;;5046517;28;20227;-76
2021/10/17 05:07:37;;;;;;;50.25;27.15;;;9.80;99.90;;;;;;5035006;28;20707;-78
2021/10/17 05:10:04;;;;;;;47.47;25.92;;;9.80;99.90;;;;;;5035139;28;20239;-77
2021/10/17 05:12:31;;;;;;;44.22;24.27;;;9.80;99.90;;;;;;5034962;28;20211;-77
2021/10/17 05:14:58;;;;;;;53.25;26.10;;;9.90;99.90;;;;;;5034775;28;20259;-77
2021/10/17 05:17:25;;;;;;;45.20;25.08;;;9.90;99.90;;;;;;5034748;28;20574;-77
2021/10/17 05:19:53;;;;;;;46.78;25.95;;;10.00;99.90;;;;;;5034476;28;20224;-77
2021/10/17 05:22:20;;;;;;;52.22;26.08;;;10.00;99.90;;;;;;5034615;28;20750;-77
2021/10/17 05:24:46;;;;;;;50.00;28.30;;;9.80;99.90;;;;;;5034693;28;20211;-77
2021/10/17 05:27:13;;;;;;;46.40;27.08;;;9.90;99.90;;;;;;5034819;28;20212;-77
2021/10/17 05:29:40;;;;;;;48.78;25.92;;;9.90;99.90;;;;;;5033662;28;20224;-77
2021/10/17 05:32:07;;;;;;;45.60;24.77;;;10.00;99.90;;;;;;5035176;28;20302;-77
2021/10/17 05:34:34;;;;;;;49.47;26.45;;;10.00;99.90;;;;;;5034892;28;20215;-77
2021/10/17 05:37:02;;;;;;;49.33;27.17;;;10.00;99.90;;;;;;5034478;28;20211;-78
2021/10/17 05:39:29;;;;;;;49.35;28.55;;;9.70;99.90;;;;;;5034519;28;20637;-76
2021/10/17 05:41:56;;;;;;;47.58;25.77;;;9.70;99.90;;;;;;5034926;28;20211;-77
2021/10/17 05:44:23;;;;;;;49.13;26.98;;;9.60;99.90;;;;;;5035034;28;20199;-77
2021/10/17 05:46:49;;;;;;;46.30;26.50;;;9.50;99.90;;;;;;5034209;28;20235;-78
2021/10/17 05:49:16;;;;;;;46.45;24.45;;;9.50;99.90;;;;;;5035269;28;20254;-78
2021/10/17 05:51:43;;;;;;;51.67;26.00;;;9.50;99.90;;;;;;5035877;28;20663;-78
2021/10/17 05:54:11;;;;;;;57.45;27.48;;;9.40;99.90;;;;;;5034052;28;20213;-78
2021/10/17 05:56:38;;;;;;;53.53;25.55;;;9.40;99.90;;;;;;5034771;28;20227;-78
2021/10/17 05:59:08;;;;;;;48.05;25.90;;;9.30;99.90;;;;;;5034891;28;20267;-77
2021/10/17 06:01:35;;;;;;;51.47;26.20;;;9.30;99.90;;;;;;5036585;28;20214;-77
2021/10/17 06:04:02;;;;;;;54.15;25.80;;;9.10;99.90;;;;;;5045955;28;20202;-77
2021/10/17 06:06:29;;;;;;;53.85;27.63;;;9.10;99.90;;;;;;5051763;28;20266;-78
2021/10/17 06:08:58;;;;;;;52.45;25.45;;;9.10;99.90;;;;;;5052212;28;20257;-77
2021/10/17 06:11:26;;;;;;;59.17;26.00;;;9.10;99.90;;;;;;5034719;28;20218;-77
2021/10/17 06:13:53;;;;;;;52.88;27.58;;;9.10;99.90;;;;;;5033943;28;20238;-77
2021/10/17 06:16:20;;;;;;;56.28;27.23;;;9.10;99.90;;;;;;5032694;28;20313;-77
2021/10/17 06:18:47;;;;;;;59.83;27.75;;;9.10;99.90;;;;;;5034659;28;20286;-76
2021/10/17 06:21:13;;;;;;;57.85;25.58;;;9.00;99.90;;;;;;5035276;28;20260;-77
2021/10/17 06:23:40;;;;;;;53.03;25.38;;;9.00;99.90;;;;;;5035551;28;20217;-77
2021/10/17 06:26:07;;;;;;;50.10;25.67;;;9.10;99.90;;;;;;5033579;28;20269;-77
2021/10/17 06:28:35;;;;;;;47.55;24.70;;;9.10;99.90;;;;;;5033800;28;20372;-78
2021/10/17 06:31:02;;;;;;;54.78;26.50;;;9.10;99.90;;;;;;5033263;28;20210;-77
2021/10/17 06:33:29;;;;;;;56.38;26.88;;;9.00;99.90;;;;;;5034113;28;20206;-78
2021/10/17 06:35:56;;;;;;;47.33;24.02;;;9.00;99.90;;;;;;5034624;28;20243;-78
2021/10/17 06:38:22;;;;;;;54.75;25.05;;;9.00;99.90;;;;;;5035471;28;20209;-77
2021/10/17 06:40:49;;;;;;;54.17;25.27;;;8.90;99.90;;;;;;5036052;28;20203;-77
2021/10/17 06:43:16;;;;;;;56.30;22.90;;;9.00;99.90;;;;;;5035206;28;20203;-77
2021/10/17 06:45:44;;;;;;;58.97;25.88;;;9.10;99.90;;;;;;5034108;28;20273;-77
2021/10/17 06:48:11;;;;;;;54.03;25.10;;;9.00;99.90;;;;;;5039726;28;20215;-77
2021/10/17 06:50:38;;;;;;;59.50;26.50;;;9.00;99.90;;;;;;5042992;28;20262;-78
2021/10/17 06:53:05;;;;;;;59.15;25.58;;;9.10;99.90;;;;;;5038260;28;20221;-78
2021/10/17 06:55:32;;;;;;;61.22;26.17;;;8.90;99.90;;;;;;5037956;28;20250;-78
2021/10/17 06:57:59;;;;;;;55.80;24.23;;;8.90;99.90;;;;;;5036750;28;20207;-78
2021/10/17 07:00:25;;;;;;;56.67;24.17;;;9.00;99.90;;;;;;5036796;28;20290;-78
2021/10/17 07:02:54;;;;;;;46.33;24.17;;;9.10;99.90;;;;;;5037111;28;20215;-77
2021/10/17 07:05:21;;;;;;;52.67;23.27;;;9.20;99.90;;;;;;5036914;28;20288;-78
2021/10/17 07:07:48;;;;;;;61.78;25.63;;;9.10;99.90;;;;;;5037443;28;20211;-77
2021/10/17 07:10:14;;;;;;;47.33;23.33;;;9.00;99.90;;;;;;5037382;28;20227;-78
2021/10/17 07:12:42;;;;;;;47.53;24.63;;;9.10;99.90;;;;;;5036764;28;20202;-77
2021/10/17 07:15:09;;;;;;;48.85;23.95;;;9.20;99.90;;;;;;5036434;28;20242;-78
2021/10/17 07:17:36;;;;;;;53.72;24.02;;;9.40;99.90;;;;;;5037264;28;20586;-78
2021/10/17 07:20:06;;;;;;;48.42;22.95;;;9.40;99.90;;;;;;5036453;28;20300;-77
2021/10/17 07:22:33;;;;;;;48.40;22.15;;;9.50;99.90;;;;;;5036910;28;20302;-77
2021/10/17 07:25:00;;;;;;;50.10;21.75;;;9.40;99.90;;;;;;5044671;28;20214;-77
2021/10/17 07:27:27;;;;;;;50.65;23.27;;;9.30;99.90;;;;;;5057879;28;20223;-78
2021/10/17 07:29:53;;;;;;;51.58;22.75;;;9.30;99.90;;;;;;5056692;28;20281;-78
2021/10/17 07:32:20;;;;;;;46.75;21.77;;;9.30;99.90;;;;;;5038032;28;20253;-77
2021/10/17 07:34:47;;;;;;;42.30;22.23;;;9.30;99.90;;;;;;5044337;28;20268;-77
2021/10/17 07:37:15;;;;;;;51.90;23.02;;;9.20;99.90;;;;;;5043766;28;20231;-76
2021/10/17 07:39:42;;;;;;;57.58;23.83;;;9.20;99.90;;;;;;5041907;28;20208;-76
2021/10/17 07:42:09;;;;;;;57.78;24.52;;;9.10;99.90;;;;;;5042040;28;20298;-76
2021/10/17 07:44:36;;;;;;;55.10;22.83;;;9.20;99.90;;;;;;5041276;28;20218;-76
2021/10/17 07:47:05;;;;;;;56.88;24.55;;;9.20;99.90;;;;;;5037977;28;20203;-76
2021/10/17 07:49:32;;;;;;;50.13;23.42;;;9.20;99.90;;;;;;5037819;28;20219;-77
2021/10/17 07:51:59;;;;;;;53.40;22.90;;;9.30;99.90;;;;;;5041235;28;20208;-77
2021/10/17 07:54:27;;;;;;;47.53;23.92;;;9.40;99.90;;;;;;5039103;28;20215;-77
2021/10/17 07:56:54;;;;;;;47.50;21.27;;;9.50;99.90;;;;;;5038966;28;20318;-77
2021/10/17 07:59:21;;;;;;;51.58;23.13;;;9.40;99.90;;;;;;5037833;28;20203;-76
2021/10/17 08:01:49;;;;;;;55.45;22.27;;;9.30;99.90;;;;;;5049198;28;20203;-76
2021/10/17 08:04:16;;;;;;;53.10;22.55;;;9.30;99.90;;;;;;5045140;28;20206;-77
2021/10/17 08:06:43;;;;;;;51.05;21.73;;;9.30;99.90;;;;;;5037357;28;20298;-76
2021/10/17 08:09:10;;;;;;;54.83;22.80;;;9.40;99.90;;;;;;5036836;28;20697;-76
2021/10/17 08:11:39;;;;;;;54.05;23.35;;;9.30;99.90;;;;;;5039302;28;20215;-78
2021/10/17 08:14:06;;;;;;;41.85;21.60;;;9.40;99.90;;;;;;5041486;28;20207;-78
2021/10/17 08:16:33;;;;;;;45.28;20.73;;;9.40;99.90;;;;;;5041149;28;20330;-77
2021/10/17 08:19:00;;;;;;;51.17;22.17;;;9.60;99.90;;;;;;5025403;28;20269;-77
2021/10/17 08:21:27;;;;;;;54.63;23.15;;;9.60;99.90;;;;;;5046718;28;20219;-78
2021/10/17 08:23:57;;;;;;;46.70;22.08;;;9.50;99.90;;;;;;5056422;28;20199;-79
2021/10/17 08:26:24;;;;;;;46.50;21.75;;;9.50;99.90;;;;;;5056238;28;20231;-79
2021/10/17 08:28:54;;;;;;;47.92;22.08;;;9.60;99.90;;;;;;5044740;28;20218;-80
2021/10/17 08:31:21;;;;;;;52.22;22.58;;;9.70;99.90;;;;;;5044517;28;20282;-80
2021/10/17 08:33:48;;;;;;;44.35;20.10;;;9.60;99.90;;;;;;5043817;28;20238;-80
2021/10/17 08:36:15;;;;;;;43.15;20.67;;;9.70;99.90;;;;;;5043471;28;20235;-79
2021/10/17 08:38:43;;;;;;;50.45;22.27;;;9.70;99.90;;;;;;5042311;28;20293;-80
2021/10/17 08:41:10;;;;;;;48.83;22.77;;;9.50;99.90;;;;;;5048022;28;20203;-80
2021/10/17 08:43:37;;;;;;;40.55;21.17;;;9.50;99.90;;;;;;5045210;28;20216;-79
2021/10/17 08:46:06;;;;;;;50.95;21.88;;;9.60;99.90;;;;;;5045323;28;20239;-79
2021/10/17 08:48:34;;;;;;;39.58;21.40;;;9.70;99.90;;;;;;5044421;28;20210;-79
2021/10/17 08:51:03;;;;;;;45.17;22.05;;;9.90;99.90;;;;;;5044858;28;20308;-80
2021/10/17 08:53:30;;;;;;;35.05;20.00;;;10.10;99.90;;;;;;5046901;28;20604;-79
2021/10/17 08:55:57;;;;;;;35.60;18.73;;;10.10;99.90;;;;;;5046945;28;20238;-79
2021/10/17 08:58:24;;;;;;;36.53;18.48;;;10.20;99.90;;;;;;5050169;28;20211;-80
2021/10/17 09:00:52;;;;;;;37.20;18.17;;;10.00;99.90;;;;;;5049311;28;20202;-81
2021/10/17 09:03:33;;;;;;;39.78;19.83;;;10.00;99.90;;;;;;5049907;28;20264;-82
2021/10/17 09:06:17;;;;;;;35.10;17.88;;;10.10;99.90;;;;;;5049492;28;20230;-80
2021/10/17 09:08:44;;;;;;;40.28;18.58;;;10.00;99.90;;;;;;5053047;28;20239;-81
2021/10/17 09:11:11;;;;;;;35.88;18.05;;;9.80;99.90;;;;;;5052891;28;20289;-81
2021/10/17 09:14:03;;;;;;;37.17;17.92;;;9.80;99.90;;;;;;5054236;28;20208;-80
2021/10/17 09:16:34;;;;;;;38.22;17.70;;;10.00;99.90;;;;;;5054020;28;20236;-81
2021/10/17 09:19:09;;;;;;;35.35;18.70;;;10.10;99.90;;;;;;5052663;28;20233;-81
2021/10/17 09:21:36;;;;;;;39.85;19.30;;;10.20;99.90;;;;;;5053888;28;20199;-81
2021/10/17 09:24:04;;;;;;;27.85;16.70;;;10.30;99.90;;;;;;5053403;28;20228;-80
2021/10/17 09:26:32;;;;;;;31.63;16.60;;;10.40;99.90;;;;;;5053752;28;20251;-80
2021/10/17 09:28:59;;;;;;;32.42;17.45;;;10.40;99.90;;;;;;5055984;28;20193;-79
2021/10/17 09:31:26;;;;;;;33.78;17.73;;;10.40;99.90;;;;;;5054483;28;20229;-80
2021/10/17 09:33:55;;;;;;;27.90;16.08;;;10.40;99.90;;;;;;5050275;28;20238;-78
2021/10/17 09:36:26;;;;;;;31.00;17.60;;;10.40;99.90;;;;;;5047847;28;20228;-80
2021/10/17 09:38:56;;;;;;;30.35;16.90;;;10.30;99.90;;;;;;5054018;28;20271;-79
2021/10/17 09:41:32;;;;;;;29.08;17.23;;;10.30;99.90;;;;;;5055485;28;20203;-79
2021/10/17 09:44:01;;;;;;;30.13;18.77;;;10.20;99.90;;;;;;5054517;28;20205;-79
2021/10/17 09:46:28;;;;;;;34.80;20.20;;;10.20;99.90;;;;;;5044502;28;20344;-79
2021/10/17 09:48:56;;;;;;;33.78;19.52;;;10.30;99.90;;;;;;5040218;28;20212;-81
2021/10/17 09:51:26;;;;;;;38.53;20.23;;;10.20;99.90;;;;;;5039763;28;20320;-80
2021/10/17 09:53:55;;;;;;;34.28;19.35;;;10.30;99.90;;;;;;5038408;28;20214;-79
2021/10/17 09:56:41;;;;;;;29.17;17.67;;;10.20;99.90;;;;;;5041654;28;20227;-80
2021/10/17 09:59:11;;;;;;;31.55;19.13;;;10.10;99.90;;;;;;5039035;28;20239;-80
2021/10/17 10:01:39;;;;;;;31.08;18.80;;;10.20;99.90;;;;;;5040492;28;20232;-80
2021/10/17 10:04:08;;;;;;;28.80;19.02;;;10.40;99.90;;;;;;5036881;28;20263;-79
2021/10/17 10:06:36;;;;;;;32.30;20.00;;;10.30;99.90;;;;;;5040164;28;20260;-79
2021/10/17 10:09:05;;;;;;;30.45;19.10;;;10.10;99.90;;;;;;5040122;28;20615;-79
2021/10/17 10:11:32;;;;;;;32.38;20.08;;;10.10;99.90;;;;;;5046111;28;20243;-80
2021/10/17 10:14:02;;;;;;;31.25;19.65;;;10.20;99.90;;;;;;5039280;28;20224;-78
2021/10/17 10:16:30;;;;;;;33.67;19.20;;;10.30;99.90;;;;;;5048444;28;20626;-79
2021/10/17 10:18:59;;;;;;;29.33;18.45;;;10.40;99.90;;;;;;5048770;28;20265;-80
2021/10/17 10:21:27;;;;;;;26.02;16.88;;;10.40;99.90;;;;;;5043713;28;20205;-79
2021/10/17 10:23:57;;;;;;;25.58;17.02;;;10.30;99.90;;;;;;5046053;28;20225;-81
2021/10/17 10:26:27;;;;;;;25.17;17.33;;;10.50;99.90;;;;;;5053105;28;20231;-79
2021/10/17 10:28:56;;;;;;;26.90;17.50;;;10.60;99.90;;;;;;5050936;28;20226;-80
2021/10/17 10:31:46;;;;;;;23.08;16.90;;;10.60;99.90;;;;;;5051966;28;20225;-80
2021/10/17 10:34:15;;;;;;;20.77;15.10;;;10.60;99.90;;;;;;5059760;28;20215;-80
2021/10/17 10:36:42;;;;;;;23.85;16.75;;;10.70;99.90;;;;;;5060704;28;20231;-80
2021/10/17 10:39:13;;;;;;;29.75;16.60;;;10.60;99.50;;;;;;5058694;28;20208;-79
2021/10/17 10:41:56;;;;;;;28.23;19.27;;;10.30;99.90;;;;;;5045451;28;20219;-79
2021/10/17 10:44:25;;;;;;;23.80;15.63;;;10.30;99.90;;;;;;5050188;28;20263;-79
2021/10/17 10:46:54;;;;;;;23.58;15.98;;;10.30;99.90;;;;;;5049057;28;20275;-80
2021/10/17 10:49:44;;;;;;;25.50;17.80;;;10.30;99.90;;;;;;5046789;28;20214;-80
2021/10/17 10:52:39;;;;;;;22.85;16.10;;;10.50;99.90;;;;;;5049004;28;20205;-80
2021/10/17 10:55:11;;;;;;;24.45;15.23;;;10.70;99.90;;;;;;5052609;28;20225;-80
2021/10/17 10:57:40;;;;;;;22.30;14.77;;;10.80;99.90;;;;;;5047187;28;20251;-80
2021/10/17 11:00:09;;;;;;;19.95;15.15;;;10.90;99.00;;;;;;5049719;28;20214;-79
2021/10/17 11:02:37;;;;;;;29.75;16.58;;;11.10;97.80;;;;;;5047873;28;20269;-79
2021/10/17 11:05:16;;;;;;;20.60;14.85;;;10.90;96.10;;;;;;5050512;28;20237;-79
2021/10/17 11:07:45;;;;;;;19.50;15.52;;;10.80;95.60;;;;;;5049826;28;20729;-80
2021/10/17 11:10:51;;;;;;;28.35;17.35;;;11.00;96.20;;;;;;5048628;28;20236;-80
2021/10/17 11:13:29;;;;;;;20.38;15.43;;;11.20;94.40;;;;;;5048051;28;20215;-79
2021/10/17 11:15:57;;;;;;;21.60;15.40;;;11.30;94.10;;;;;;5049969;28;20232;-80
2021/10/17 11:18:34;;;;;;;17.92;13.88;;;11.30;92.60;;;;;;5050367;28;20239;-80
2021/10/17 11:21:02;;;;;;;20.15;14.82;;;11.40;92.40;;;;;;5049470;28;20198;-79
2021/10/17 11:23:32;;;;;;;20.27;14.50;;;11.30;91.80;;;;;;5051530;28;20269;-80
2021/10/17 11:26:02;;;;;;;21.30;15.32;;;11.30;92.60;;;;;;5053963;28;20300;-80
2021/10/17 11:28:31;;;;;;;20.58;16.33;;;11.40;92.40;;;;;;5058746;28;20203;-80
2021/10/17 11:31:10;;;;;;;21.55;14.80;;;11.30;91.80;;;;;;5057804;28;20245;-80
2021/10/17 11:33:38;;;;;;;26.02;17.67;;;11.30;91.80;;;;;;5055487;28;20234;-79
2021/10/17 11:36:07;;;;;;;27.98;17.73;;;11.10;92.60;;;;;;5053367;28;20220;-80
2021/10/17 11:38:37;;;;;;;25.38;16.17;;;11.10;93.10;;;;;;5048165;28;20212;-80
2021/10/17 11:41:07;;;;;;;20.80;14.80;;;11.00;93.10;;;;;;5046493;28;20273;-80
2021/10/17 11:43:40;;;;;;;23.23;15.80;;;11.00;93.50;;;;;;5046803;28;20228;-83
2021/10/17 11:46:14;;;;;;;27.40;16.05;;;11.00;93.60;;;;;;5046617;28;20244;-80
2021/10/17 11:48:42;;;;;;;22.20;15.00;;;10.90;93.50;;;;;;5048276;28;20202;-80
2021/10/17 11:51:11;;;;;;;21.15;14.43;;;11.00;94.80;;;;;;5045226;28;20233;-80
2021/10/17 11:53:38;;;;;;;21.60;14.65;;;11.10;94.50;;;;;;5045169;28;20272;-80
2021/10/17 11:56:10;;;;;;;20.48;12.95;;;11.10;93.50;;;;;;5044864;28;20234;-79
2021/10/17 11:58:38;;;;;;;24.60;14.90;;;11.10;92.30;;;;;;5046171;28;20559;-80
2021/10/17 12:01:11;;;;;;;21.08;15.10;;;11.20;91.80;;;;;;5045097;28;20203;-80
2021/10/17 12:03:40;;;;;;;24.83;15.15;;;11.20;91.80;;;;;;5044710;28;20217;-81
2021/10/17 12:06:14;;;;;;;23.83;15.25;;;11.30;91.10;;;;;;5043409;28;20237;-80
2021/10/17 12:08:42;;;;;;;23.50;15.82;;;11.20;89.70;;;;;;5043195;28;20559;-82
2021/10/17 12:11:12;;;;;;;22.48;15.20;;;11.20;89.70;;;;;;5044094;28;20260;-79
2021/10/17 12:13:40;;;;;;;23.60;17.75;;;11.20;88.60;;;;;;5042943;28;20244;-80
2021/10/17 12:16:11;;;;;;;23.05;16.25;;;11.30;87.50;;;;;;5044610;28;20312;-80
2021/10/17 12:18:43;;;;;;;25.38;15.30;;;11.30;87.10;;;;;;5045775;28;20210;-80
2021/10/17 12:21:11;;;;;;;21.35;17.08;;;11.30;87.00;;;;;;5042176;28;20206;-80
2021/10/17 12:23:39;;;;;;;23.88;17.27;;;11.40;86.00;;;;;;5044752;28;20227;-79
2021/10/17 12:26:06;;;;;;;26.83;17.25;;;11.40;86.00;;;;;;5045000;28;20231;-80
2021/10/17 12:28:34;;;;;;;25.95;17.08;;;11.40;84.90;;;;;;5046508;28;20290;-80
2021/10/17 12:31:02;;;;;;;27.65;17.98;;;11.30;85.10;;;;;;5050959;28;20258;-80
2021/10/17 12:33:33;;;;;;;24.88;15.82;;;11.40;85.90;;;;;;5055261;28;20235;-80
2021/10/17 12:36:01;;;;;;;29.08;17.75;;;11.40;85.90;;;;;;5053094;28;20236;-79
2021/10/17 12:38:34;;;;;;;29.73;17.67;;;11.50;86.00;;;;;;5051792;28;20241;-80